createdAt,value
2022-12-01T00:00:56.267Z,2.63
2022-12-01T00:02:59.323Z,2.55
2022-12-01T00:05:01.342Z,2.65
2022-12-01T00:07:03.064Z,2.63
2022-12-01T00:09:05.077Z,2.69
2022-12-01T00:11:11.736Z,2.73
2022-12-01T00:13:13.736Z,2.81
2022-12-01T00:15:15.469Z,2.78
2022-12-01T00:17:17.386Z,2.38
2022-12-01T00:19:19.107Z,2.74
2022-12-01T00:21:23.293Z,2.75
2022-12-01T00:23:25.579Z,2.81
2022-12-01T00:25:28.556Z,2.77
2022-12-01T00:27:30.300Z,2.75
2022-12-01T00:29:32.357Z,2.56
2022-12-01T00:31:34.215Z,2.53
2022-12-01T00:33:36.274Z,2.56
2022-12-01T00:35:38.052Z,2.67
2022-12-01T00:37:39.984Z,2.64
2022-12-01T00:39:41.841Z,2.76
2022-12-01T00:41:43.537Z,2.71
2022-12-01T00:43:45.246Z,2.77
2022-12-01T00:45:47.286Z,2.81
2022-12-01T00:47:49.142Z,2.87
2022-12-01T00:49:51.029Z,2.72
2022-12-01T00:51:53.045Z,2.66
2022-12-01T00:53:54.814Z,2.71
2022-12-01T00:55:56.620Z,2.74
2022-12-01T00:57:58.369Z,2.72
2022-12-01T01:00:00.286Z,2.53
2022-12-01T01:02:03.981Z,2.45
2022-12-01T01:04:06.261Z,2.54
2022-12-01T01:06:11.199Z,2.49
2022-12-01T01:08:14.819Z,2.49
2022-12-01T01:10:16.508Z,2.46
2022-12-01T01:12:18.291Z,2.47
2022-12-01T01:14:20.791Z,2.40
2022-12-01T01:16:22.773Z,2.45
2022-12-01T01:18:24.737Z,2.36
2022-12-01T01:20:26.508Z,2.51
2022-12-01T01:22:28.404Z,2.50
2022-12-01T01:24:30.158Z,2.45
2022-12-01T01:26:33.071Z,2.53
2022-12-01T01:28:34.976Z,2.44
2022-12-01T01:30:39.991Z,2.45
2022-12-01T01:32:41.717Z,2.53
2022-12-01T01:34:43.666Z,2.62
2022-12-01T01:36:45.401Z,2.55
2022-12-01T01:38:47.521Z,2.66
2022-12-01T01:40:49.474Z,2.67
2022-12-01T01:42:51.348Z,2.54
2022-12-01T01:44:56.208Z,2.25
2022-12-01T01:46:58.310Z,2.24
2022-12-01T01:49:06.158Z,2.37
2022-12-01T01:51:08.730Z,2.43
2022-12-01T01:53:13.659Z,2.54
2022-12-01T01:55:16.429Z,2.58
2022-12-01T01:57:26.727Z,2.50
2022-12-01T01:59:31.782Z,2.43
2022-12-01T02:01:33.729Z,2.36
2022-12-01T02:03:38.188Z,2.38
2022-12-01T02:05:40.645Z,2.25
2022-12-01T02:07:43.022Z,2.18
2022-12-01T02:09:45.748Z,2.26
2022-12-01T02:12:05.164Z,2.33
2022-12-01T02:14:18.226Z,2.38
2022-12-01T02:16:38.436Z,2.42
2022-12-01T02:18:51.955Z,2.45
2022-12-01T02:21:32.392Z,2.36
2022-12-01T02:24:11.503Z,2.39
2022-12-01T02:26:34.788Z,2.36
2022-12-01T02:28:45.207Z,2.27
2022-12-01T02:31:15.086Z,2.02
2022-12-01T02:33:25.604Z,2.25
2022-12-01T02:35:45.783Z,2.38
2022-12-01T02:38:14.642Z,2.32
2022-12-01T02:40:26.821Z,2.28
2022-12-01T02:42:43.851Z,2.33
2022-12-01T02:44:47.645Z,2.37
2022-12-01T02:47:03.063Z,2.42
2022-12-01T02:49:10.183Z,2.38
2022-12-01T02:51:18.229Z,2.40
2022-12-01T02:53:21.417Z,2.53
2022-12-01T02:55:23.268Z,2.62
2022-12-01T02:57:26.111Z,2.61
2022-12-01T02:59:28.308Z,2.59
2022-12-01T03:01:48.089Z,2.53
2022-12-01T03:04:23.065Z,2.05
2022-12-01T03:07:03.639Z,2.25
2022-12-01T03:09:17.699Z,2.29
2022-12-01T03:11:24.484Z,2.35
2022-12-01T03:13:41.773Z,2.25
2022-12-01T03:15:54.190Z,2.22
2022-12-01T03:18:17.220Z,2.28
2022-12-01T03:20:43.558Z,2.32
2022-12-01T03:22:53.911Z,2.17
2022-12-01T03:24:57.728Z,2.27
2022-12-01T03:27:02.472Z,2.42
2022-12-01T03:29:13.776Z,2.37
2022-12-01T03:31:20.527Z,2.31
2022-12-01T03:33:28.085Z,2.43
2022-12-01T03:35:39.103Z,2.40
2022-12-01T03:37:49.782Z,2.24
2022-12-01T03:39:59.964Z,2.23
2022-12-01T03:42:26.044Z,2.19
2022-12-01T03:44:35.877Z,2.04
2022-12-01T03:46:58.417Z,2.02
2022-12-01T03:49:00.120Z,2.03
2022-12-01T03:51:22.941Z,2.18
2022-12-01T03:53:29.812Z,2.05
2022-12-01T03:55:36.052Z,2.18
2022-12-01T03:57:56.575Z,2.20
2022-12-01T03:59:58.881Z,2.19
2022-12-01T04:02:00.651Z,2.14
2022-12-01T04:04:08.351Z,2.03
2022-12-01T04:06:10.503Z,2.00
2022-12-01T04:08:12.294Z,2.07
2022-12-01T04:10:14.184Z,1.96
2022-12-01T04:12:16.161Z,1.90
2022-12-01T04:14:17.833Z,1.86
2022-12-01T04:16:19.606Z,1.89
2022-12-01T04:18:22.107Z,1.91
2022-12-01T04:20:23.844Z,1.77
2022-12-01T04:22:26.287Z,1.51
2022-12-01T04:24:28.410Z,1.75
2022-12-01T04:26:34.980Z,1.77
2022-12-01T04:28:36.703Z,1.85
2022-12-01T04:30:38.662Z,1.95
2022-12-01T04:32:42.067Z,1.86
2022-12-01T04:34:44.185Z,1.92
2022-12-01T04:36:46.196Z,1.95
2022-12-01T04:38:47.916Z,2.06
2022-12-01T04:40:49.623Z,1.99
2022-12-01T04:42:51.708Z,1.95
2022-12-01T04:44:53.402Z,1.91
2022-12-01T04:46:55.183Z,1.94
2022-12-01T04:48:57.354Z,1.96
2022-12-01T04:50:59.079Z,1.47
2022-12-01T04:53:00.822Z,1.83
2022-12-01T04:55:04.035Z,1.81
2022-12-01T04:57:05.741Z,1.72
2022-12-01T04:59:07.916Z,1.85
2022-12-01T05:01:13.295Z,1.84
2022-12-01T05:03:15.390Z,1.74
2022-12-01T05:05:17.147Z,1.68
2022-12-01T05:07:19.350Z,1.71
2022-12-01T05:09:21.271Z,1.70
2022-12-01T05:11:24.897Z,1.75
2022-12-01T05:13:26.710Z,1.76
2022-12-01T05:15:28.647Z,1.75
2022-12-01T05:17:36.818Z,1.77
2022-12-01T05:19:39.312Z,1.72
2022-12-01T05:21:42.317Z,1.70
2022-12-01T05:23:44.361Z,1.67
2022-12-01T05:25:46.845Z,1.69
2022-12-01T05:27:48.528Z,1.77
2022-12-01T05:29:50.393Z,1.69
2022-12-01T05:31:52.506Z,1.59
2022-12-01T05:33:54.198Z,1.55
2022-12-01T05:35:56.215Z,1.54
2022-12-01T05:37:58.550Z,1.48
2022-12-01T05:40:02.169Z,1.47
2022-12-01T05:42:04.027Z,1.62
2022-12-01T05:44:06.146Z,1.48
2022-12-01T05:46:08.186Z,1.53
2022-12-01T05:48:10.156Z,1.45
2022-12-01T05:50:12.138Z,1.49
2022-12-01T05:52:13.866Z,1.40
2022-12-01T05:54:15.608Z,1.41
2022-12-01T05:56:17.593Z,1.33
2022-12-01T05:58:19.392Z,1.50
2022-12-01T06:00:21.461Z,1.46
2022-12-01T06:02:23.344Z,1.52
2022-12-01T06:04:25.136Z,1.42
2022-12-01T06:06:26.907Z,1.51
2022-12-01T06:08:28.740Z,1.50
2022-12-01T06:10:30.448Z,1.55
2022-12-01T06:12:32.182Z,1.60
2022-12-01T06:14:34.198Z,1.67
2022-12-01T06:16:35.974Z,1.54
2022-12-01T06:18:38.797Z,1.62
2022-12-01T06:20:40.893Z,1.50
2022-12-01T06:22:42.664Z,1.51
2022-12-01T06:24:44.394Z,1.61
2022-12-01T06:26:46.430Z,1.72
2022-12-01T06:28:48.156Z,1.77
2022-12-01T06:30:49.859Z,1.69
2022-12-01T06:32:51.752Z,1.64
2022-12-01T06:34:53.752Z,1.74
2022-12-01T06:36:55.457Z,1.48
2022-12-01T06:38:57.472Z,1.43
2022-12-01T06:40:59.656Z,1.48
2022-12-01T06:43:02.221Z,1.61
2022-12-01T06:45:04.576Z,1.63
2022-12-01T06:47:06.257Z,1.59
2022-12-01T06:49:11.899Z,1.53
2022-12-01T06:51:14.025Z,1.55
2022-12-01T06:53:15.702Z,1.62
2022-12-01T06:55:17.502Z,1.55
2022-12-01T06:57:19.475Z,1.65
2022-12-01T06:59:21.645Z,1.68
2022-12-01T07:01:23.877Z,1.66
2022-12-01T07:03:26.238Z,1.60
2022-12-01T07:05:27.925Z,1.63
2022-12-01T07:07:29.645Z,1.64
2022-12-01T07:09:31.796Z,1.63
2022-12-01T07:11:33.515Z,1.68
2022-12-01T07:13:35.856Z,1.69
2022-12-01T07:15:38.686Z,1.77
2022-12-01T07:17:40.432Z,1.80
2022-12-01T07:19:42.112Z,1.76
2022-12-01T07:21:44.007Z,1.64
2022-12-01T07:23:45.700Z,1.68
2022-12-01T07:25:47.396Z,1.83
2022-12-01T07:27:49.533Z,1.79
2022-12-01T07:29:51.488Z,1.95
2022-12-01T07:31:53.348Z,2.03
2022-12-01T07:33:55.481Z,2.01
2022-12-01T07:35:57.218Z,1.97
2022-12-01T07:37:58.891Z,1.97
2022-12-01T07:40:00.870Z,1.83
2022-12-01T07:42:03.040Z,1.96
2022-12-01T07:44:04.844Z,2.08
2022-12-01T07:46:20.412Z,2.07
2022-12-01T07:48:24.241Z,1.98
2022-12-01T07:50:25.925Z,2.07
2022-12-01T07:52:28.117Z,2.16
2022-12-01T07:54:29.835Z,2.09
2022-12-01T07:56:31.976Z,2.00
2022-12-01T07:58:34.131Z,2.10
2022-12-01T08:00:35.818Z,2.13
2022-12-01T08:02:37.595Z,2.28
2022-12-01T08:04:39.494Z,2.17
2022-12-01T08:06:41.168Z,2.00
2022-12-01T08:08:43.070Z,2.20
2022-12-01T08:10:45.316Z,2.11
2022-12-01T08:12:47.018Z,2.29
2022-12-01T08:14:48.728Z,2.31
2022-12-01T08:16:50.825Z,2.46
2022-12-01T08:18:53.243Z,2.30
2022-12-01T08:20:57.340Z,2.33
2022-12-01T08:23:02.585Z,2.33
2022-12-01T08:25:05.303Z,2.48
2022-12-01T08:27:07.019Z,2.67
2022-12-01T08:29:09.170Z,2.80
2022-12-01T08:31:14.457Z,2.76
2022-12-01T08:33:16.229Z,3.01
2022-12-01T08:35:18.280Z,2.94
2022-12-01T08:37:19.972Z,3.10
2022-12-01T08:39:21.724Z,3.16
2022-12-01T08:41:24.280Z,3.27
2022-12-01T08:43:56.144Z,3.37
2022-12-01T08:45:47.726Z,3.34
2022-12-01T08:47:50.131Z,3.28
2022-12-01T08:49:51.882Z,3.24
2022-12-01T08:51:53.677Z,3.19
2022-12-01T08:53:57.926Z,3.20
2022-12-01T08:56:05.934Z,3.25
2022-12-01T08:58:08.383Z,3.43
2022-12-01T09:00:10.891Z,3.33
2022-12-01T09:02:15.955Z,3.28
2022-12-01T09:04:18.983Z,3.55
2022-12-01T09:06:21.130Z,3.55
2022-12-01T09:08:22.843Z,3.49
2022-12-01T09:10:24.580Z,3.43
2022-12-01T09:12:28.599Z,3.36
2022-12-01T09:14:30.318Z,3.04
2022-12-01T09:16:32.414Z,3.03
2022-12-01T09:18:34.663Z,2.98
2022-12-01T09:20:36.354Z,2.97
2022-12-01T09:22:38.094Z,2.97
2022-12-01T09:24:40.055Z,3.05
2022-12-01T09:26:42.739Z,2.84
2022-12-01T09:28:49.381Z,2.96
2022-12-01T09:30:51.494Z,2.94
2022-12-01T09:32:53.172Z,2.95
2022-12-01T09:34:54.893Z,2.81
2022-12-01T09:36:57.649Z,2.83
2022-12-01T09:39:00.199Z,2.91
2022-12-01T09:41:05.959Z,3.03
2022-12-01T09:43:24.548Z,2.85
2022-12-01T09:45:30.862Z,2.60
2022-12-01T09:47:35.721Z,2.56
2022-12-01T09:49:53.035Z,2.66
2022-12-01T09:51:55.039Z,2.65
2022-12-01T09:53:59.541Z,2.69
2022-12-01T09:56:08.528Z,2.17
2022-12-01T09:58:25.747Z,2.61
2022-12-01T10:00:35.401Z,2.77
2022-12-01T10:02:42.196Z,2.78
2022-12-01T10:04:47.727Z,2.46
2022-12-01T10:06:57.626Z,2.60
2022-12-01T10:09:20.966Z,2.73
2022-12-01T10:11:31.701Z,2.63
2022-12-01T10:13:34.294Z,2.64
2022-12-01T10:15:55.040Z,2.56
2022-12-01T10:18:34.157Z,2.79
2022-12-01T10:20:48.548Z,2.89
2022-12-01T10:23:00.405Z,2.86
2022-12-01T10:25:22.078Z,3.10
2022-12-01T10:27:36.260Z,2.74
2022-12-01T10:29:37.980Z,2.79
2022-12-01T10:31:54.048Z,2.68
2022-12-01T10:34:14.883Z,2.66
2022-12-01T10:36:16.668Z,2.78
2022-12-01T10:38:29.636Z,2.88
2022-12-01T10:40:31.574Z,2.87
2022-12-01T10:42:41.399Z,2.79
2022-12-01T10:44:43.887Z,2.73
2022-12-01T10:46:49.000Z,2.84
2022-12-01T10:49:00.159Z,2.92
2022-12-01T10:51:28.158Z,2.97
2022-12-01T10:53:33.367Z,2.86
2022-12-01T10:55:44.920Z,2.98
2022-12-01T10:57:50.813Z,3.00
2022-12-01T11:00:04.769Z,3.03
2022-12-01T11:02:17.099Z,2.96
2022-12-01T11:04:36.425Z,2.88
2022-12-01T11:06:38.267Z,3.01
2022-12-01T11:08:51.665Z,3.03
2022-12-01T11:10:53.381Z,3.06
2022-12-01T11:13:05.886Z,2.89
2022-12-01T11:15:17.415Z,2.83
2022-12-01T11:17:37.077Z,2.97
2022-12-01T11:19:38.960Z,3.00
2022-12-01T11:21:49.850Z,2.99
2022-12-01T11:23:53.862Z,2.96
2022-12-01T11:26:17.228Z,2.97
2022-12-01T11:28:20.959Z,3.09
2022-12-01T11:30:25.989Z,3.12
2022-12-01T11:32:37.267Z,3.24
2022-12-01T11:34:39.094Z,3.25
2022-12-01T11:36:47.083Z,3.23
2022-12-01T11:38:50.371Z,3.20
2022-12-01T11:40:55.209Z,3.16
2022-12-01T11:43:06.169Z,3.06
2022-12-01T11:45:18.760Z,3.08
2022-12-01T11:47:26.234Z,2.89
2022-12-01T11:49:29.881Z,2.89
2022-12-01T11:51:32.796Z,2.95
2022-12-01T11:53:40.452Z,2.97
2022-12-01T11:55:42.181Z,2.78
2022-12-01T11:57:45.921Z,2.80
2022-12-01T11:59:48.339Z,2.67
2022-12-01T12:02:05.496Z,2.70
2022-12-01T12:04:32.269Z,2.56
2022-12-01T12:06:45.713Z,2.43
2022-12-01T12:09:17.578Z,2.59
2022-12-01T12:12:04.672Z,2.60
2022-12-01T12:14:24.277Z,2.62
2022-12-01T12:16:43.674Z,2.71
2022-12-01T12:19:03.055Z,2.62
2022-12-01T12:21:10.831Z,2.60
2022-12-01T12:23:30.797Z,2.47
2022-12-01T12:25:39.236Z,2.45
2022-12-01T12:27:46.706Z,2.53
2022-12-01T12:30:13.324Z,2.68
2022-12-01T12:32:56.496Z,2.43
2022-12-01T12:35:16.012Z,2.42
2022-12-01T12:37:25.475Z,2.48
2022-12-01T12:39:43.288Z,2.51
2022-12-01T12:41:55.263Z,2.56
2022-12-01T12:44:11.144Z,2.58
2022-12-01T12:46:31.460Z,2.57
2022-12-01T12:49:18.680Z,2.65
2022-12-01T12:51:24.036Z,2.49
2022-12-01T12:53:32.085Z,2.58
2022-12-01T12:55:39.865Z,2.58
2022-12-01T12:57:48.887Z,2.47
2022-12-01T13:00:03.210Z,2.60
2022-12-01T13:02:31.890Z,2.49
2022-12-01T13:04:51.047Z,2.39
2022-12-01T13:07:00.860Z,2.47
2022-12-01T13:09:09.647Z,2.56
2022-12-01T13:11:29.650Z,2.68
2022-12-01T13:13:37.115Z,2.70
2022-12-01T13:15:40.475Z,2.71
2022-12-01T13:17:46.225Z,2.76
2022-12-01T13:19:48.759Z,2.61
2022-12-01T13:21:52.511Z,2.73
2022-12-01T13:23:54.487Z,2.58
2022-12-01T13:26:01.323Z,2.51
2022-12-01T13:28:07.060Z,2.58
2022-12-01T13:30:21.390Z,2.59
2022-12-01T13:32:35.485Z,2.63
2022-12-01T13:34:42.844Z,2.68
2022-12-01T13:36:50.721Z,2.61
2022-12-01T13:39:00.067Z,2.52
2022-12-01T13:41:13.990Z,2.68
2022-12-01T13:43:21.634Z,2.71
2022-12-01T13:45:23.884Z,2.65
2022-12-01T13:47:47.121Z,2.54
2022-12-01T13:49:51.771Z,2.47
2022-12-01T13:52:32.644Z,2.62
2022-12-01T13:54:36.665Z,2.70
2022-12-01T13:56:46.379Z,2.64
2022-12-01T13:58:54.348Z,2.57
2022-12-01T14:01:21.961Z,2.47
2022-12-01T14:03:31.856Z,2.47
2022-12-01T14:05:40.348Z,2.50
2022-12-01T14:07:43.407Z,2.53
2022-12-01T14:09:45.458Z,2.57
2022-12-01T14:12:00.716Z,2.56
2022-12-01T14:14:12.586Z,2.58
2022-12-01T14:16:15.457Z,2.45
2022-12-01T14:18:29.225Z,2.34
2022-12-01T14:20:35.033Z,2.29
2022-12-01T14:22:45.442Z,2.44
2022-12-01T14:24:53.021Z,2.45
2022-12-01T14:26:55.482Z,2.40
2022-12-01T14:29:00.189Z,2.39
2022-12-01T14:31:06.342Z,2.40
2022-12-01T14:33:36.200Z,2.25
2022-12-01T14:35:38.024Z,2.33
2022-12-01T14:37:44.367Z,2.43
2022-12-01T14:39:52.414Z,2.25
2022-12-01T14:42:02.887Z,2.25
2022-12-01T14:44:27.707Z,2.15
2022-12-01T14:46:35.255Z,2.15
2022-12-01T14:48:44.442Z,2.10
2022-12-01T14:50:52.263Z,2.12
2022-12-01T14:53:01.604Z,2.18
2022-12-01T14:55:07.958Z,2.19
2022-12-01T14:57:16.724Z,2.20
2022-12-01T14:59:21.748Z,2.23
2022-12-01T15:01:25.628Z,2.29
2022-12-01T15:03:33.567Z,2.28
2022-12-01T15:05:41.384Z,2.36
2022-12-01T15:07:47.219Z,2.32
2022-12-01T15:10:19.735Z,2.33
2022-12-01T15:12:27.984Z,2.31
2022-12-01T15:14:38.746Z,2.23
2022-12-01T15:16:41.316Z,2.15
2022-12-01T15:18:43.333Z,2.12
2022-12-01T15:20:47.800Z,2.16
2022-12-01T15:22:50.402Z,2.18
2022-12-01T15:24:52.356Z,2.15
2022-12-01T15:27:02.168Z,2.20
2022-12-01T15:29:25.776Z,2.22
2022-12-01T15:31:27.574Z,2.33
2022-12-01T15:33:37.161Z,2.46
2022-12-01T15:35:39.285Z,2.35
2022-12-01T15:37:43.607Z,2.40
2022-12-01T15:39:49.496Z,2.23
2022-12-01T15:41:51.729Z,2.19
2022-12-01T15:43:58.808Z,2.20
2022-12-01T15:46:10.702Z,2.16
2022-12-01T15:48:26.964Z,2.09
2022-12-01T15:50:37.675Z,2.23
2022-12-01T15:52:43.927Z,2.11
2022-12-01T15:54:49.905Z,2.05
2022-12-01T15:56:54.762Z,2.01
2022-12-01T15:59:14.253Z,1.91
2022-12-01T16:01:25.708Z,1.86
2022-12-01T16:03:28.414Z,2.02
2022-12-01T16:05:32.378Z,2.11
2022-12-01T16:08:11.646Z,2.27
2022-12-01T16:09:59.532Z,2.18
2022-12-01T16:12:17.086Z,2.27
2022-12-01T16:14:22.789Z,2.15
2022-12-01T16:16:41.807Z,2.04
2022-12-01T16:19:09.216Z,1.94
2022-12-01T16:21:11.073Z,1.86
2022-12-01T16:23:23.501Z,1.91
2022-12-01T16:25:46.111Z,2.00
2022-12-01T16:27:52.981Z,1.92
2022-12-01T16:30:02.616Z,1.95
2022-12-01T16:32:20.246Z,1.88
2022-12-01T16:34:44.487Z,1.88
2022-12-01T16:36:45.797Z,1.87
2022-12-01T16:38:47.512Z,1.91
2022-12-01T16:40:54.471Z,1.87
2022-12-01T16:42:56.206Z,1.87
2022-12-01T16:44:57.948Z,1.99
2022-12-01T16:46:59.761Z,1.96
2022-12-01T16:49:01.463Z,1.98
2022-12-01T16:51:05.798Z,1.80
2022-12-01T16:53:07.980Z,1.89
2022-12-01T16:55:41.862Z,1.72
2022-12-01T16:57:43.600Z,1.76
2022-12-01T16:59:45.568Z,1.70
2022-12-01T17:01:53.563Z,1.70
2022-12-01T17:03:55.608Z,1.53
2022-12-01T17:06:00.276Z,1.51
2022-12-01T17:08:02.159Z,1.47
2022-12-01T17:10:05.152Z,1.59
2022-12-01T17:12:07.460Z,1.75
2022-12-01T17:14:09.553Z,1.81
2022-12-01T17:16:16.733Z,1.90
2022-12-01T17:18:21.477Z,1.91
2022-12-01T17:20:23.423Z,2.04
2022-12-01T17:22:25.437Z,1.83
2022-12-01T17:24:28.623Z,1.70
2022-12-01T17:26:30.337Z,1.81
2022-12-01T17:28:32.108Z,1.71
2022-12-01T17:30:34.186Z,1.86
2022-12-01T17:32:36.026Z,1.86
2022-12-01T17:34:37.727Z,1.82
2022-12-01T17:36:39.685Z,1.86
2022-12-01T17:38:43.750Z,1.90
2022-12-01T17:40:45.450Z,1.86
2022-12-01T17:42:50.607Z,1.66
2022-12-01T17:44:52.951Z,1.60
2022-12-01T17:46:54.789Z,1.63
2022-12-01T17:48:56.565Z,1.69
2022-12-01T17:50:58.956Z,1.95
2022-12-01T17:53:00.666Z,1.92
2022-12-01T17:55:02.409Z,1.78
2022-12-01T17:57:04.457Z,1.65
2022-12-01T17:59:06.264Z,1.72
2022-12-01T18:01:14.547Z,1.86
2022-12-01T18:03:16.404Z,1.98
2022-12-01T18:05:18.180Z,1.98
2022-12-01T18:07:20.562Z,2.02
2022-12-01T18:09:22.761Z,1.93
2022-12-01T18:11:24.500Z,1.91
2022-12-01T18:13:26.365Z,1.85
2022-12-01T18:15:33.231Z,1.91
2022-12-01T18:17:36.679Z,1.76
2022-12-01T18:19:38.577Z,1.77
2022-12-01T18:21:40.812Z,1.85
2022-12-01T18:23:42.711Z,1.81
2022-12-01T18:25:44.450Z,1.74
2022-12-01T18:27:46.687Z,1.77
2022-12-01T18:29:48.372Z,1.75
2022-12-01T18:31:50.430Z,1.70
2022-12-01T18:33:52.326Z,1.75
2022-12-01T18:35:54.053Z,1.61
2022-12-01T18:37:58.879Z,1.60
2022-12-01T18:40:00.887Z,1.66
2022-12-01T18:42:02.660Z,1.43
2022-12-01T18:44:05.170Z,1.51
2022-12-01T18:46:07.580Z,1.36
2022-12-01T18:48:09.303Z,1.38
2022-12-01T18:50:11.440Z,1.30
2022-12-01T18:52:13.157Z,1.20
2022-12-01T18:54:16.028Z,1.26
2022-12-01T18:56:17.763Z,1.20
2022-12-01T18:58:19.494Z,1.06
2022-12-01T19:00:21.734Z,1.18
2022-12-01T19:02:24.131Z,1.11
2022-12-01T19:04:25.930Z,1.14
2022-12-01T19:06:28.861Z,0.97
2022-12-01T19:08:30.854Z,0.76
2022-12-01T19:10:32.952Z,0.82
2022-12-01T19:12:40.837Z,0.83
2022-12-01T19:14:43.605Z,0.96
2022-12-01T19:16:45.993Z,1.00
2022-12-01T19:18:47.958Z,1.05
2022-12-01T19:20:50.455Z,1.02
2022-12-01T19:22:52.219Z,1.17
2022-12-01T19:24:54.423Z,1.14
2022-12-01T19:26:56.276Z,1.07
2022-12-01T19:28:58.091Z,1.10
2022-12-01T19:31:00.290Z,1.02
2022-12-01T19:33:02.098Z,1.00
2022-12-01T19:35:04.439Z,0.98
2022-12-01T19:37:06.281Z,1.11
2022-12-01T19:39:08.286Z,1.16
2022-12-01T19:41:10.837Z,0.95
2022-12-01T19:43:12.555Z,1.01
2022-12-01T19:45:14.390Z,0.94
2022-12-01T19:47:21.746Z,0.81
2022-12-01T19:49:24.159Z,0.69
2022-12-01T19:51:32.089Z,0.64
2022-12-01T19:53:36.045Z,0.65
2022-12-01T19:55:37.901Z,0.74
2022-12-01T19:57:39.707Z,0.65
2022-12-01T19:59:41.494Z,0.60
2022-12-01T20:01:44.204Z,0.68
2022-12-01T20:03:48.050Z,0.71
2022-12-01T20:05:49.847Z,0.77
2022-12-01T20:07:51.755Z,0.89
2022-12-01T20:09:53.501Z,0.86
2022-12-01T20:11:55.249Z,0.70
2022-12-01T20:13:57.021Z,0.58
2022-12-01T20:16:13.210Z,0.79
2022-12-01T20:18:15.143Z,0.76
2022-12-01T20:20:16.872Z,0.63
2022-12-01T20:22:19.016Z,0.63
2022-12-01T20:24:20.846Z,0.66
2022-12-01T20:26:27.561Z,0.71
2022-12-01T20:28:33.464Z,0.65
2022-12-01T20:30:40.027Z,0.73
2022-12-01T20:32:41.777Z,0.75
2022-12-01T20:34:43.784Z,0.76
2022-12-01T20:36:45.692Z,0.84
2022-12-01T20:38:47.768Z,0.79
2022-12-01T20:40:52.083Z,0.67
2022-12-01T20:42:54.063Z,0.69
2022-12-01T20:44:55.759Z,0.66
2022-12-01T20:46:57.591Z,0.60
2022-12-01T20:48:59.646Z,0.54
2022-12-01T20:51:02.911Z,0.45
2022-12-01T20:53:04.793Z,0.52
2022-12-01T20:55:07.007Z,0.55
2022-12-01T20:57:08.778Z,0.59
2022-12-01T20:59:10.881Z,0.50
2022-12-01T21:01:15.719Z,0.53
2022-12-01T21:03:20.799Z,0.63
2022-12-01T21:05:24.392Z,0.50
2022-12-01T21:07:26.162Z,0.46
2022-12-01T21:09:27.920Z,0.37
2022-12-01T21:11:35.013Z,0.34
2022-12-01T21:13:36.937Z,0.38
2022-12-01T21:15:57.316Z,0.08
2022-12-01T21:18:12.586Z,0.17
2022-12-01T21:20:25.785Z,0.18
2022-12-01T21:22:27.789Z,0.30
2022-12-01T21:24:35.015Z,0.32
2022-12-01T21:26:42.462Z,0.07
2022-12-01T21:28:44.154Z,0.17
2022-12-01T21:30:51.032Z,0.20
2022-12-01T21:32:53.880Z,0.23
2022-12-01T21:35:07.612Z,-0.02
2022-12-01T21:37:23.304Z,0.00
2022-12-01T21:39:25.451Z,0.00
2022-12-01T21:41:28.938Z,-0.04
2022-12-01T21:43:35.224Z,-0.04
2022-12-01T21:45:39.933Z,-0.02
2022-12-01T21:47:42.048Z,-0.07
2022-12-01T21:49:44.598Z,0.01
2022-12-01T21:51:48.023Z,-0.14
2022-12-01T21:53:51.139Z,-0.34
2022-12-01T21:55:56.127Z,-0.36
2022-12-01T21:57:57.873Z,-0.34
2022-12-01T22:00:29.131Z,-0.45
2022-12-01T22:03:00.304Z,-0.27
2022-12-01T22:05:02.085Z,-0.17
2022-12-01T22:07:03.803Z,-0.09
2022-12-01T22:09:23.653Z,-0.15
2022-12-01T22:11:27.450Z,-0.22
2022-12-01T22:13:43.161Z,-0.21
2022-12-01T22:15:44.951Z,-0.17
2022-12-01T22:17:46.686Z,-0.36
2022-12-01T22:20:00.124Z,-0.33
2022-12-01T22:22:27.888Z,-0.36
2022-12-01T22:24:38.915Z,-0.40
2022-12-01T22:26:46.275Z,-0.38
2022-12-01T22:28:55.083Z,-0.19
2022-12-01T22:30:56.943Z,-0.14
2022-12-01T22:33:03.092Z,-0.23
2022-12-01T22:35:27.833Z,-0.12
2022-12-01T22:37:45.512Z,-0.17
2022-12-01T22:39:54.008Z,-0.12
2022-12-01T22:42:04.040Z,-0.12
2022-12-01T22:44:12.014Z,-0.24
2022-12-01T22:46:24.130Z,-0.21
2022-12-01T22:48:26.236Z,-0.08
2022-12-01T22:50:33.003Z,-0.11
2022-12-01T22:52:34.694Z,-0.14
2022-12-01T22:54:44.136Z,-0.07
2022-12-01T22:56:49.123Z,0.01
2022-12-01T22:58:50.819Z,-0.22
2022-12-01T23:00:54.045Z,-0.26
2022-12-01T23:02:56.035Z,-0.43
2022-12-01T23:05:24.815Z,-0.56
2022-12-01T23:07:35.537Z,-0.61
2022-12-01T23:09:43.795Z,-0.68
2022-12-01T23:11:51.055Z,-0.76
2022-12-01T23:13:55.419Z,-0.75
2022-12-01T23:15:57.230Z,-0.62
2022-12-01T23:18:25.078Z,-0.69
2022-12-01T23:20:30.711Z,-0.79
2022-12-01T23:22:32.971Z,-0.73
2022-12-01T23:24:34.653Z,-0.74
2022-12-01T23:26:36.467Z,-0.82
2022-12-01T23:28:39.348Z,-0.63
2022-12-01T23:30:43.752Z,-0.54
2022-12-01T23:32:48.276Z,-0.45
2022-12-01T23:34:50.689Z,-0.58
2022-12-01T23:36:53.455Z,-0.82
2022-12-01T23:39:02.654Z,-0.82
2022-12-01T23:41:16.581Z,-0.87
2022-12-01T23:43:25.687Z,-1.00
2022-12-01T23:45:28.374Z,-0.97
2022-12-01T23:47:30.560Z,-0.83
2022-12-01T23:49:35.422Z,-0.64
2022-12-01T23:51:40.069Z,-0.64
2022-12-01T23:53:41.817Z,-0.74
2022-12-01T23:55:43.561Z,-0.98
2022-12-01T23:57:45.369Z,-1.17
2022-12-01T23:59:48.244Z,-1.05
